Time;durP1;ratioP1;P1;durP2;ratioP2;P2;SDS_P1;SDS_P2;PMS_P1;PMS_P2;Temp;Humidity;BMP_temperature;BMP_pressure;BME280_temperature;BME280_humidity;BME280_pressure;Samples;Min_cycle;Max_cycle;Signal;HPM_P1;HPM_P2
2021/11/21 00:01:36;;;;;;;9.95;3.22;;;;;;;15.22;41.97;102266.41;5056342;28;20111;-88
2021/11/21 00:04:02;;;;;;;12.70;3.30;;;;;;;15.53;41.27;102255.53;5056627;28;20070;-78
2021/11/21 00:06:27;;;;;;;8.80;2.58;;;;;;;15.59;40.89;102265.34;5059195;28;20071;-87
2021/11/21 00:08:54;;;;;;;16.77;3.90;;;;;;;15.48;41.04;102259.22;5060449;28;20095;-81
2021/11/21 00:11:20;;;;;;;8.18;2.67;;;;;;;15.56;41.01;102252.16;5076505;28;20032;-87
2021/11/21 00:13:48;;;;;;;15.88;2.92;;;;;;;15.60;40.90;102263.41;5073805;28;21800;-87
2021/11/21 00:16:13;;;;;;;11.82;3.05;;;;;;;15.57;40.90;102272.25;5066160;28;20044;-85
2021/11/21 00:18:40;;;;;;;11.57;2.70;;;;;;;15.63;40.59;102273.81;5066249;28;20024;-88
2021/11/21 00:21:06;;;;;;;12.30;3.97;;;;;;;15.46;40.85;102268.94;5058781;28;20028;-79
2021/11/21 00:23:31;;;;;;;9.98;3.30;;;;;;;15.61;40.77;102262.25;5055876;28;20036;-79
2021/11/21 00:25:57;;;;;;;14.60;3.03;;;;;;;15.57;40.74;102267.59;5055364;28;20029;-78
2021/11/21 00:28:23;;;;;;;8.23;2.85;;;;;;;15.59;40.71;102268.09;5053912;28;20472;-78
2021/11/21 00:30:49;;;;;;;9.85;2.42;;;;;;;15.59;40.48;102270.03;5054688;28;20405;-82
2021/11/21 00:33:14;;;;;;;12.10;2.75;;;;;;;15.54;40.59;102269.00;5055068;28;20126;-78
2021/11/21 00:35:40;;;;;;;11.32;2.85;;;;;;;15.52;40.66;102268.50;5055082;28;20083;-78
2021/11/21 00:38:05;;;;;;;8.85;2.80;;;;;;;15.40;40.94;102267.41;5054829;28;20033;-78
2021/11/21 00:40:31;;;;;;;11.45;2.95;;;;;;;15.42;40.77;102270.69;5054838;28;20439;-79
2021/11/21 00:43:00;;;;;;;9.50;2.88;;;;;;;15.46;40.62;102269.75;5054948;28;20024;-78
2021/11/21 00:45:28;;;;;;;9.77;2.85;;;;;;;15.42;40.83;102267.94;5055144;28;20434;-86
2021/11/21 00:47:54;;;;;;;12.02;3.75;;;;;;;15.43;40.65;102269.56;5053876;28;20473;-78
2021/11/21 00:50:24;;;;;;;11.35;2.67;;;;;;;15.37;40.81;102279.03;5053601;28;20027;-86
2021/11/21 00:52:56;;;;;;;9.45;3.00;;;;;;;15.40;40.59;102276.47;5055172;28;20031;-82
2021/11/21 00:55:32;;;;;;;8.27;2.40;;;;;;;15.33;40.86;102284.34;5053979;28;20025;-85
2021/11/21 00:57:57;;;;;;;11.32;2.90;;;;;;;15.22;41.13;102278.25;5053944;28;20123;-85
2021/11/21 01:00:23;;;;;;;11.25;3.00;;;;;;;15.26;40.79;102273.75;5055122;28;20051;-84
2021/11/21 01:02:49;;;;;;;10.98;3.47;;;;;;;15.27;40.87;102280.91;5054767;28;20078;-77
2021/11/21 01:05:14;;;;;;;17.75;3.40;;;;;;;15.25;40.85;102280.38;5054671;28;20037;-77
2021/11/21 01:07:40;;;;;;;10.23;3.78;;;;;;;15.14;41.20;102284.47;5053327;28;20029;-77
2021/11/21 01:10:10;;;;;;;9.55;2.88;;;;;;;15.31;40.94;102299.56;5054524;28;20167;-86
2021/11/21 01:12:36;;;;;;;9.85;2.78;;;;;;;15.26;41.03;102290.28;5054771;28;20036;-78
2021/11/21 01:15:05;;;;;;;13.38;3.90;;;;;;;15.26;41.02;102289.44;5053091;28;20471;-78
2021/11/21 01:17:30;;;;;;;13.88;3.28;;;;;;;15.26;41.00;102278.44;5054406;28;20387;-86
2021/11/21 01:20:00;;;;;;;10.60;2.53;;;;;;;15.24;41.08;102270.47;5054516;28;20032;-78
2021/11/21 01:22:28;;;;;;;9.10;2.15;;;;;;;15.25;41.20;102272.09;5053405;28;20091;-79
2021/11/21 01:24:55;;;;;;;19.98;3.58;;;;;;;15.19;41.19;102267.03;5054391;28;20032;-85
2021/11/21 01:27:21;;;;;;;10.70;3.28;;;;;;;15.27;40.95;102271.81;5054057;28;20025;-78
2021/11/21 01:29:47;;;;;;;9.88;2.95;;;;;;;15.27;40.94;102269.88;5053967;28;20047;-78
2021/11/21 01:32:12;;;;;;;9.60;3.30;;;;;;;15.31;40.85;102275.56;5054065;28;20036;-79
2021/11/21 01:34:38;;;;;;;10.95;3.10;;;;;;;14.99;41.55;102271.00;5053981;28;20036;-78
2021/11/21 01:37:03;;;;;;;12.80;2.95;;;;;;;14.86;41.98;102269.88;5053845;28;20024;-78
2021/11/21 01:39:29;;;;;;;10.95;2.92;;;;;;;14.90;41.95;102259.09;5053605;28;20071;-78
2021/11/21 01:41:55;;;;;;;8.70;2.38;;;;;;;14.87;41.86;102268.75;5053747;28;20033;-78
2021/11/21 01:44:21;;;;;;;13.70;3.45;;;;;;;15.10;41.40;102271.59;5053648;28;20029;-81
2021/11/21 01:46:48;;;;;;;17.75;3.80;;;;;;;15.15;41.19;102269.56;5053583;28;20029;-78
2021/11/21 01:49:14;;;;;;;6.72;2.10;;;;;;;15.18;41.11;102263.44;5053810;28;20056;-81
2021/11/21 01:51:39;;;;;;;9.85;3.22;;;;;;;15.08;41.37;102266.41;5052266;28;20033;-78
2021/11/21 01:54:07;;;;;;;14.07;3.50;;;;;;;15.17;41.13;102266.50;5053631;28;20059;-78
2021/11/21 01:56:32;;;;;;;12.60;4.57;;;;;;;15.20;41.00;102269.47;5053773;28;20128;-85
2021/11/21 01:58:58;;;;;;;14.15;2.90;;;;;;;14.83;41.96;102284.25;5053560;28;20150;-83
2021/11/21 02:01:24;;;;;;;15.52;3.20;;;;;;;14.82;41.87;102285.38;5053429;28;20033;-82
2021/11/21 02:03:51;;;;;;;12.10;2.83;;;;;;;15.10;41.11;102277.94;5052502;28;20090;-79
2021/11/21 02:06:17;;;;;;;15.98;3.55;;;;;;;15.10;41.39;102286.19;5053352;28;20104;-78
2021/11/21 02:08:42;;;;;;;13.57;3.47;;;;;;;15.12;41.28;102280.41;5053511;28;20212;-78
2021/11/21 02:11:08;;;;;;;9.77;3.70;;;;;;;14.99;41.32;102280.09;5053525;28;20026;-78
2021/11/21 02:13:34;;;;;;;9.65;2.97;;;;;;;15.13;41.06;102262.75;5053053;28;20086;-77
2021/11/21 02:15:59;;;;;;;8.02;3.03;;;;;;;15.02;41.03;102272.31;5053163;28;20029;-78
2021/11/21 02:18:27;;;;;;;12.20;2.50;;;;;;;15.13;40.87;102279.28;5053141;28;20383;-85
2021/11/21 02:20:55;;;;;;;15.52;3.78;;;;;;;15.03;41.12;102268.44;5053078;28;20079;-78
2021/11/21 02:23:25;;;;;;;9.73;2.55;;;;;;;15.06;41.10;102267.84;5053012;28;20033;-78
2021/11/21 02:25:51;;;;;;;11.48;2.85;;;;;;;15.04;41.02;102275.59;5053072;28;20104;-78
2021/11/21 02:28:17;;;;;;;12.95;2.65;;;;;;;14.99;41.28;102285.59;5051731;28;20025;-78
2021/11/21 02:30:43;;;;;;;10.15;2.53;;;;;;;14.84;41.10;102283.13;5052905;28;20124;-78
2021/11/21 02:33:15;;;;;;;7.13;2.30;;;;;;;14.94;40.86;102291.19;5052919;28;20025;-85
2021/11/21 02:35:45;;;;;;;12.98;2.95;;;;;;;14.96;40.98;102280.72;5053061;28;20035;-77
2021/11/21 02:38:12;;;;;;;8.02;2.75;;;;;;;14.81;41.25;102294.75;5052989;28;20025;-78
2021/11/21 02:40:38;;;;;;;11.32;2.80;;;;;;;14.88;41.04;102286.06;5052915;28;20052;-78
2021/11/21 02:43:04;;;;;;;13.20;2.80;;;;;;;14.74;41.33;102279.78;5052823;28;20056;-78
2021/11/21 02:45:29;;;;;;;15.43;3.97;;;;;;;14.64;41.79;102275.25;5052755;28;20490;-78
2021/11/21 02:47:55;;;;;;;11.48;2.95;;;;;;;14.58;41.71;102276.44;5052806;28;20057;-77
2021/11/21 02:50:23;;;;;;;11.40;2.35;;;;;;;14.59;41.69;102280.88;5052368;28;20032;-82
2021/11/21 02:52:50;;;;;;;11.35;2.30;;;;;;;14.53;41.94;102287.56;5052732;28;20052;-78
2021/11/21 02:55:17;;;;;;;10.95;2.78;;;;;;;14.43;41.92;102291.25;5051556;28;20033;-77
2021/11/21 02:57:43;;;;;;;12.82;2.72;;;;;;;14.49;41.82;102286.53;5051409;28;20510;-78
2021/11/21 03:00:12;;;;;;;11.15;2.42;;;;;;;14.54;41.79;102283.69;5052565;28;20029;-78
2021/11/21 03:02:39;;;;;;;8.55;2.83;;;;;;;14.44;41.93;102284.66;5052783;28;20021;-78
2021/11/21 03:05:06;;;;;;;10.43;3.03;;;;;;;14.54;41.77;102279.00;5052428;28;20025;-86
2021/11/21 03:07:32;;;;;;;11.05;2.70;;;;;;;14.35;42.09;102272.69;5052707;28;20131;-77
2021/11/21 03:09:57;;;;;;;14.40;2.70;;;;;;;14.39;42.17;102282.81;5052689;28;20064;-78
2021/11/21 03:12:23;;;;;;;13.60;3.67;;;;;;;14.30;42.22;102283.81;5052332;28;20033;-77
2021/11/21 03:14:50;;;;;;;10.57;2.70;;;;;;;14.41;42.02;102282.50;5052110;28;20029;-84
2021/11/21 03:17:17;;;;;;;10.68;2.67;;;;;;;14.40;41.79;102297.38;5052541;28;20029;-78
2021/11/21 03:19:43;;;;;;;7.53;2.38;;;;;;;14.40;41.75;102300.13;5052473;28;20475;-77
2021/11/21 03:22:09;;;;;;;11.00;2.78;;;;;;;14.30;42.00;102306.63;5052333;28;20086;-78
2021/11/21 03:24:35;;;;;;;9.45;2.97;;;;;;;14.41;41.87;102310.00;5052492;28;20033;-78
2021/11/21 03:27:01;;;;;;;14.57;3.80;;;;;;;14.34;41.85;102310.38;5052230;28;20078;-77
2021/11/21 03:29:27;;;;;;;12.60;2.78;;;;;;;14.38;41.71;102302.38;5052164;28;20036;-83
2021/11/21 03:31:52;;;;;;;6.05;2.22;;;;;;;14.38;41.75;102308.69;5052177;28;20025;-77
2021/11/21 03:34:21;;;;;;;11.05;3.72;;;;;;;14.22;42.02;102301.81;5052249;28;20123;-78
2021/11/21 03:36:46;;;;;;;12.43;3.25;;;;;;;14.22;41.85;102301.00;5052527;28;20021;-78
2021/11/21 03:39:12;;;;;;;7.20;2.15;;;;;;;14.26;41.73;102305.56;5051022;28;20040;-77
2021/11/21 03:41:38;;;;;;;9.43;2.70;;;;;;;14.28;41.78;102308.00;5050789;28;20117;-77
2021/11/21 03:44:06;;;;;;;10.95;3.08;;;;;;;14.03;42.51;102304.56;5052003;28;20033;-80
2021/11/21 03:46:32;;;;;;;13.43;2.65;;;;;;;14.23;41.84;102319.94;5052065;28;20059;-84
2021/11/21 03:48:57;;;;;;;11.00;2.50;;;;;;;14.16;42.12;102323.06;5052252;28;20104;-77
2021/11/21 03:51:23;;;;;;;9.40;3.38;;;;;;;14.10;42.12;102329.72;5052670;28;20021;-78
2021/11/21 03:53:49;;;;;;;14.35;2.63;;;;;;;14.23;41.99;102325.44;5052288;28;20451;-78
2021/11/21 03:56:15;;;;;;;11.80;3.97;;;;;;;14.22;41.81;102329.28;5052319;28;20017;-78
2021/11/21 03:58:40;;;;;;;14.40;2.85;;;;;;;14.20;41.97;102327.94;5050731;28;20365;-78
2021/11/21 04:01:06;;;;;;;12.68;2.50;;;;;;;14.24;41.76;102324.31;5052184;28;20033;-77
2021/11/21 04:03:32;;;;;;;10.43;2.42;;;;;;;14.22;41.68;102321.03;5055556;28;20021;-77
2021/11/21 04:05:57;;;;;;;15.75;2.67;;;;;;;14.24;41.58;102321.56;5055996;28;20079;-77
2021/11/21 04:08:23;;;;;;;12.85;3.08;;;;;;;14.10;42.12;102326.16;5055623;28;20108;-77
2021/11/21 04:10:49;;;;;;;14.27;2.35;;;;;;;14.21;41.71;102324.91;5055529;28;20029;-78
2021/11/21 04:13:14;;;;;;;17.92;3.45;;;;;;;14.20;41.76;102333.44;5054248;28;20170;-78
2021/11/21 04:15:40;;;;;;;15.48;3.70;;;;;;;14.23;41.87;102333.69;5055430;28;20025;-84
2021/11/21 04:18:08;;;;;;;14.13;3.35;;;;;;;14.24;41.66;102340.81;5054182;28;20133;-78
2021/11/21 04:20:34;;;;;;;14.55;3.20;;;;;;;14.19;41.41;102340.88;5054341;28;20029;-77
2021/11/21 04:23:00;;;;;;;9.48;2.70;;;;;;;14.16;41.50;102344.22;5055543;28;20040;-84
2021/11/21 04:25:25;;;;;;;11.63;3.35;;;;;;;14.14;41.34;102344.53;5055678;28;20045;-85
2021/11/21 04:27:51;;;;;;;11.65;3.55;;;;;;;14.15;41.43;102343.41;5054353;28;20025;-78
2021/11/21 04:30:16;;;;;;;17.60;4.35;;;;;;;14.00;41.86;102338.16;5054691;28;20128;-84
2021/11/21 04:32:44;;;;;;;12.13;2.47;;;;;;;14.08;41.64;102331.97;5053917;28;20025;-86
2021/11/21 04:35:13;;;;;;;13.48;3.47;;;;;;;14.09;41.49;102335.53;5055123;28;20032;-79
2021/11/21 04:37:40;;;;;;;14.13;2.65;;;;;;;14.08;41.61;102328.41;5055192;28;20021;-77
2021/11/21 04:40:08;;;;;;;12.85;2.88;;;;;;;14.09;41.71;102332.78;5055148;28;20029;-77
2021/11/21 04:42:33;;;;;;;12.40;2.80;;;;;;;14.09;41.41;102327.28;5054964;28;20055;-78
2021/11/21 04:44:59;;;;;;;11.75;2.58;;;;;;;14.08;41.54;102331.97;5054801;28;20025;-77
2021/11/21 04:47:24;;;;;;;11.15;2.60;;;;;;;14.08;41.74;102331.16;5054924;28;20028;-78
2021/11/21 04:49:51;;;;;;;11.32;2.50;;;;;;;14.03;41.65;102328.47;5055103;28;20029;-78
2021/11/21 04:52:16;;;;;;;14.52;3.83;;;;;;;14.05;41.57;102326.25;5054831;28;20112;-86
2021/11/21 04:54:42;;;;;;;23.38;3.30;;;;;;;13.99;41.68;102325.53;5054799;28;20129;-77
2021/11/21 04:57:08;;;;;;;14.02;3.00;;;;;;;13.95;41.80;102331.91;5054868;28;20079;-78
2021/11/21 04:59:34;;;;;;;13.63;2.95;;;;;;;13.95;41.77;102327.22;5053572;28;20395;-78
2021/11/21 05:02:00;;;;;;;14.88;2.90;;;;;;;13.93;42.10;102329.44;5054745;28;20029;-77
2021/11/21 05:04:25;;;;;;;13.35;3.67;;;;;;;13.92;41.92;102333.31;5054478;28;20025;-77
2021/11/21 05:06:51;;;;;;;14.82;3.67;;;;;;;13.95;41.78;102324.47;5052790;28;20033;-78
2021/11/21 05:09:17;;;;;;;12.85;3.22;;;;;;;13.92;41.93;102321.50;5041476;28;20060;-81
2021/11/21 05:11:42;;;;;;;11.35;2.55;;;;;;;13.93;41.86;102312.16;5054194;28;20060;-77
2021/11/21 05:14:08;;;;;;;14.45;3.20;;;;;;;13.88;41.71;102308.34;5053900;28;20036;-77
2021/11/21 05:16:34;;;;;;;12.10;2.53;;;;;;;13.89;41.59;102300.91;5054334;28;20029;-78
2021/11/21 05:19:01;;;;;;;14.40;3.55;;;;;;;13.81;42.02;102305.16;5054399;28;20107;-78
2021/11/21 05:21:27;;;;;;;8.57;3.53;;;;;;;13.80;41.87;102310.94;5054417;28;20025;-77
2021/11/21 05:23:53;;;;;;;16.52;2.92;;;;;;;13.67;42.33;102306.19;5054300;28;20061;-85
2021/11/21 05:26:18;;;;;;;14.32;3.92;;;;;;;14.06;41.41;102298.47;5054183;28;20025;-77
2021/11/21 05:28:44;;;;;;;8.73;2.50;;;;;;;14.23;41.23;102306.19;5054117;28;20040;-77
2021/11/21 05:31:10;;;;;;;13.88;2.80;;;;;;;14.26;40.72;102305.56;5053639;28;20140;-78
2021/11/21 05:33:35;;;;;;;16.45;3.40;;;;;;;14.15;41.30;102304.13;5052619;28;20476;-81
2021/11/21 05:36:01;;;;;;;14.32;3.75;;;;;;;13.89;41.76;102299.00;5053979;28;20038;-78
2021/11/21 05:38:26;;;;;;;12.07;2.30;;;;;;;13.88;41.68;102305.59;5053876;28;20501;-77
2021/11/21 05:40:52;;;;;;;10.88;2.58;;;;;;;13.84;41.95;102293.59;5053791;28;20029;-77
2021/11/21 05:43:18;;;;;;;19.35;3.13;;;;;;;13.84;42.10;102301.81;5053739;28;20036;-78
2021/11/21 05:45:44;;;;;;;12.40;2.95;;;;;;;13.85;42.18;102305.41;5053744;28;20391;-77
2021/11/21 05:48:10;;;;;;;11.25;2.83;;;;;;;13.95;41.68;102307.97;5052582;28;20048;-78
2021/11/21 05:50:35;;;;;;;15.07;4.32;;;;;;;13.91;41.87;102311.63;5053798;28;20067;-76
2021/11/21 05:53:01;;;;;;;18.33;4.05;;;;;;;13.93;41.78;102315.72;5053596;28;20040;-76
2021/11/21 05:55:27;;;;;;;18.30;3.30;;;;;;;13.99;41.79;102328.28;5052140;28;20032;-76
2021/11/21 05:57:52;;;;;;;14.40;3.97;;;;;;;13.85;42.00;102333.69;5053373;28;20384;-77
2021/11/21 06:00:21;;;;;;;11.63;3.30;;;;;;;13.95;41.93;102332.72;5052380;28;20400;-76
2021/11/21 06:02:47;;;;;;;9.70;2.73;;;;;;;13.93;41.77;102339.63;5052373;28;20116;-76
2021/11/21 06:05:12;;;;;;;8.90;2.58;;;;;;;13.94;41.80;102344.00;5052066;28;20112;-76
2021/11/21 06:07:38;;;;;;;10.02;2.55;;;;;;;14.02;41.70;102349.66;5052189;28;20449;-85
2021/11/21 06:10:06;;;;;;;12.52;2.67;;;;;;;13.93;41.85;102340.44;5053384;28;20039;-76
2021/11/21 06:12:32;;;;;;;10.27;2.28;;;;;;;13.93;41.84;102340.44;5053239;28;20060;-77
2021/11/21 06:14:58;;;;;;;9.15;2.33;;;;;;;13.83;41.96;102332.34;5053330;28;20104;-78
2021/11/21 06:17:24;;;;;;;10.88;2.28;;;;;;;13.82;41.89;102339.75;5052122;28;20136;-77
2021/11/21 06:19:50;;;;;;;11.73;2.80;;;;;;;13.82;41.90;102331.50;5053153;28;20061;-82
2021/11/21 06:22:17;;;;;;;12.65;2.63;;;;;;;13.85;41.99;102333.69;5051861;28;20112;-76
2021/11/21 06:24:44;;;;;;;13.77;2.90;;;;;;;13.79;42.10;102350.53;5052635;28;20055;-77
2021/11/21 06:27:10;;;;;;;14.15;2.55;;;;;;;13.76;41.91;102345.63;5052536;28;20040;-76
2021/11/21 06:29:36;;;;;;;17.88;4.80;;;;;;;13.73;41.92;102352.53;5051670;28;20025;-76
2021/11/21 06:32:01;;;;;;;10.57;3.30;;;;;;;13.69;42.20;102351.50;5053056;28;20032;-85
2021/11/21 06:34:27;;;;;;;8.43;4.35;;;;;;;13.63;42.35;102355.41;5053001;28;20033;-77
2021/11/21 06:36:53;;;;;;;16.23;3.95;;;;;;;13.61;42.20;102354.91;5053081;28;20040;-77
2021/11/21 06:39:18;;;;;;;15.68;3.63;;;;;;;13.63;42.32;102351.84;5051753;28;20040;-82
2021/11/21 06:41:44;;;;;;;8.57;3.40;;;;;;;13.70;42.01;102350.38;5053248;28;20033;-78
2021/11/21 06:44:10;;;;;;;9.95;3.38;;;;;;;13.92;41.51;102370.97;5051685;28;20029;-77
2021/11/21 06:46:36;;;;;;;11.15;3.70;;;;;;;13.98;41.24;102370.59;5052368;28;20029;-77
2021/11/21 06:49:02;;;;;;;13.82;4.65;;;;;;;14.00;41.14;102382.13;5052680;28;20074;-77
2021/11/21 06:51:29;;;;;;;11.80;4.78;;;;;;;13.99;41.30;102385.16;5051591;28;20059;-77
2021/11/21 06:53:56;;;;;;;16.00;3.92;;;;;;;14.02;41.07;102376.31;5051535;28;20029;-77
2021/11/21 06:56:23;;;;;;;10.30;3.17;;;;;;;13.91;41.42;102385.81;5051514;28;20408;-86
2021/11/21 06:58:48;;;;;;;12.57;2.90;;;;;;;13.89;41.35;102389.66;5051585;28;20052;-85
2021/11/21 07:01:15;;;;;;;11.82;3.72;;;;;;;13.97;41.32;102390.94;5051443;28;20475;-77
2021/11/21 07:03:41;;;;;;;11.10;3.70;;;;;;;14.02;41.00;102393.63;5051480;28;20506;-86
2021/11/21 07:06:07;;;;;;;12.27;3.47;;;;;;;14.03;41.03;102386.19;5056728;28;20036;-86
2021/11/21 07:08:33;;;;;;;10.65;3.65;;;;;;;13.98;41.09;102391.75;5061970;28;20502;-78
2021/11/21 07:10:58;;;;;;;9.60;2.78;;;;;;;13.99;40.95;102393.41;5065225;28;20051;-78
2021/11/21 07:13:24;;;;;;;8.70;3.10;;;;;;;13.93;41.01;102398.16;5072236;28;20040;-78
2021/11/21 07:15:50;;;;;;;8.82;2.72;;;;;;;13.88;41.35;102393.53;5072415;28;20427;-78
2021/11/21 07:18:16;;;;;;;8.85;2.03;;;;;;;13.94;40.98;102390.72;5070919;28;20386;-78
2021/11/21 07:20:42;;;;;;;10.05;2.13;;;;;;;14.00;40.89;102389.53;5064566;28;20036;-78
2021/11/21 07:23:10;;;;;;;9.15;2.10;;;;;;;13.97;41.04;102392.88;5068972;28;20040;-78
2021/11/21 07:25:36;;;;;;;7.47;2.35;;;;;;;13.81;41.42;102397.75;5050891;28;20021;-78
2021/11/21 07:28:02;;;;;;;11.63;2.20;;;;;;;13.75;41.50;102397.03;5052675;28;20036;-78
2021/11/21 07:30:28;;;;;;;11.38;4.25;;;;;;;13.67;41.70;102405.06;5050860;28;20048;-83
2021/11/21 07:32:54;;;;;;;14.93;7.10;;;;;;;13.71;41.43;102398.72;5064034;28;20044;-80
2021/11/21 07:35:22;;;;;;;12.05;7.45;;;;;;;13.67;41.69;102400.38;5058515;28;20033;-84
2021/11/21 07:37:48;;;;;;;16.50;8.55;;;;;;;13.59;42.33;102404.59;5056738;28;20086;-78
2021/11/21 07:40:15;;;;;;;16.95;6.78;;;;;;;13.70;41.91;102410.81;5059217;28;20029;-84
2021/11/21 07:42:42;;;;;;;10.13;3.38;;;;;;;13.70;41.94;102413.56;5073321;28;20036;-82
2021/11/21 07:45:09;;;;;;;7.55;3.97;;;;;;;13.71;42.15;102415.19;5076447;28;20044;-78
2021/11/21 07:47:35;;;;;;;12.60;3.60;;;;;;;13.78;41.96;102409.34;5075147;28;20040;-85
2021/11/21 07:50:02;;;;;;;15.93;6.22;;;;;;;13.72;42.14;102416.81;5076571;28;20029;-85
2021/11/21 07:52:28;;;;;;;13.10;8.73;;;;;;;13.75;42.20;102413.50;5074609;28;20529;-84
2021/11/21 07:54:53;;;;;;;19.00;10.73;;;;;;;13.68;42.35;102421.28;5074679;28;20052;-77
2021/11/21 07:57:19;;;;;;;25.27;14.02;;;;;;;13.69;42.63;102417.41;5074788;28;20086;-77
2021/11/21 07:59:45;;;;;;;16.27;11.27;;;;;;;13.67;42.58;102405.06;5075871;28;20036;-76
2021/11/21 08:02:11;;;;;;;16.58;11.95;;;;;;;13.70;42.63;102407.25;5074413;28;20032;-87
2021/11/21 08:04:37;;;;;;;19.20;13.10;;;;;;;13.69;42.77;102414.66;5074489;28;20036;-77
2021/11/21 08:07:03;;;;;;;20.20;14.77;;;;;;;13.72;42.85;102416.81;5076108;28;20382;-86
2021/11/21 08:09:29;;;;;;;17.10;11.77;;;;;;;13.60;43.28;102420.00;5074206;28;20596;-78
2021/11/21 08:11:55;;;;;;;18.50;11.65;;;;;;;13.51;43.42;102420.91;5075255;28;20069;-77
2021/11/21 08:14:20;;;;;;;17.20;10.85;;;;;;;13.56;43.50;102440.09;5075509;28;20111;-77
2021/11/21 08:16:47;;;;;;;18.85;9.80;;;;;;;13.36;43.74;102438.38;5075623;28;20382;-78
2021/11/21 08:19:13;;;;;;;10.55;7.72;;;;;;;13.48;43.81;102435.25;5075513;28;20360;-78
2021/11/21 08:21:39;;;;;;;10.27;7.13;;;;;;;13.49;43.80;102442.38;5075467;28;20032;-79
2021/11/21 08:24:07;;;;;;;16.35;8.93;;;;;;;13.45;43.95;102455.03;5075371;28;20347;-77
2021/11/21 08:26:34;;;;;;;14.32;10.80;;;;;;;13.51;43.87;102459.34;5075476;28;20466;-78
2021/11/21 08:28:59;;;;;;;15.98;10.77;;;;;;;13.47;44.05;102459.13;5075524;28;20474;-78
2021/11/21 08:31:25;;;;;;;19.30;13.98;;;;;;;13.69;43.65;102460.56;5075158;28;20041;-78
2021/11/21 08:33:50;;;;;;;16.10;13.95;;;;;;;13.48;44.08;102466.25;5075441;28;20029;-87
2021/11/21 08:36:16;;;;;;;11.55;8.85;;;;;;;13.47;44.48;102469.31;5076367;28;20032;-74
2021/11/21 08:38:42;;;;;;;9.35;7.22;;;;;;;13.59;43.99;102477.94;5069080;28;20032;-75
2021/11/21 08:41:08;;;;;;;12.57;4.25;;;;;;;13.59;44.09;102473.28;5067601;28;20049;-78
2021/11/21 08:43:33;;;;;;;12.90;2.90;;;;;;;13.67;44.10;102471.81;5061122;28;20024;-80
2021/11/21 08:45:59;;;;;;;8.98;2.10;;;;;;;13.93;43.61;102474.28;5060069;28;20603;-77
2021/11/21 08:48:24;;;;;;;5.85;1.77;;;;;;;14.07;43.19;102466.97;5093826;28;20017;-76
2021/11/21 08:50:50;;;;;;;9.63;1.63;;;;;;;14.01;43.47;102473.63;5061603;28;20391;-77
2021/11/21 08:53:16;;;;;;;9.40;2.00;;;;;;;14.11;43.10;102478.97;5059351;28;20063;-80
2021/11/21 08:55:41;;;;;;;6.13;1.40;;;;;;;14.17;43.02;102477.81;5060860;28;20021;-78
2021/11/21 08:58:07;;;;;;;7.65;1.45;;;;;;;14.02;43.52;102484.31;5065278;28;20025;-78
2021/11/21 09:00:33;;;;;;;6.53;1.40;;;;;;;14.00;43.81;102478.31;5060463;28;20049;-91
2021/11/21 09:02:58;;;;;;;4.28;1.42;;;;;;;14.32;43.08;102490.53;5056587;28;20108;-76
2021/11/21 09:05:24;;;;;;;6.10;1.35;;;;;;;14.11;43.57;102485.28;5057843;28;20431;-85
2021/11/21 09:07:50;;;;;;;5.80;1.80;;;;;;;14.13;44.13;102487.75;5068707;28;20029;-89
2021/11/21 09:10:18;;;;;;;11.98;2.15;;;;;;;13.97;44.28;102495.38;5074638;28;20025;-78
2021/11/21 09:12:45;;;;;;;4.72;1.25;;;;;;;14.11;44.12;102506.47;5061901;28;20024;-84
2021/11/21 09:15:14;;;;;;;17.25;2.00;;;;;;;13.96;44.51;102509.41;5063823;28;20422;-90
2021/11/21 09:17:42;;;;;;;6.35;1.55;;;;;;;14.22;44.07;102519.00;5062549;28;20025;-81
2021/11/21 09:20:08;;;;;;;8.60;1.50;;;;;;;14.24;44.11;102522.25;5062086;28;20086;-90
2021/11/21 09:22:34;;;;;;;6.72;1.65;;;;;;;14.30;43.86;102525.78;5064589;28;20064;-78
2021/11/21 09:25:00;;;;;;;6.45;1.58;;;;;;;14.39;43.76;102530.31;5061303;28;20025;-79
2021/11/21 09:27:25;;;;;;;6.43;1.90;;;;;;;14.11;44.34;102543.03;5062205;28;20055;-78
2021/11/21 09:29:51;;;;;;;3.42;1.23;;;;;;;14.20;44.21;102543.19;5061471;28;20488;-79
2021/11/21 09:32:16;;;;;;;5.25;1.55;;;;;;;14.01;44.58;102536.84;5057468;28;20070;-84
2021/11/21 09:34:42;;;;;;;7.97;2.20;;;;;;;14.10;44.35;102543.31;5058302;28;20040;-88
2021/11/21 09:37:08;;;;;;;4.13;1.38;;;;;;;14.10;44.69;102543.31;5064048;28;20033;-90
2021/11/21 09:39:34;;;;;;;12.55;2.53;;;;;;;14.18;44.40;102548.16;5064528;28;20033;-78
2021/11/21 09:42:00;;;;;;;5.75;1.65;;;;;;;14.12;44.55;102549.34;5061690;28;20511;-86
2021/11/21 09:44:27;;;;;;;5.47;1.55;;;;;;;14.15;44.52;102557.03;5055960;28;20021;-81
2021/11/21 09:46:57;;;;;;;10.00;1.60;;;;;;;14.01;44.21;102569.81;5061716;28;20033;-80
2021/11/21 09:49:25;;;;;;;;;;;;;;;14.20;44.46;102569.88;5065148;28;20028;-79
2021/11/21 09:51:50;;;;;;;6.78;1.45;;;;;;;14.05;44.52;102565.38;5065975;28;19913;-78
2021/11/21 09:54:18;;;;;;;4.35;2.00;;;;;;;14.18;44.43;102578.41;5071346;28;20035;-79
2021/11/21 09:56:44;;;;;;;6.88;1.42;;;;;;;14.27;44.05;102579.41;5072679;28;20119;-83
2021/11/21 09:59:10;;;;;;;5.72;1.90;;;;;;;14.37;44.01;102576.53;5070437;28;20117;-80
2021/11/21 10:01:41;;;;;;;5.47;1.27;;;;;;;14.50;43.38;102587.97;5065921;28;20052;-80
2021/11/21 10:04:10;;;;;;;5.68;1.38;;;;;;;14.43;43.64;102582.78;5061249;28;20123;-94
2021/11/21 10:06:44;;;;;;;5.38;1.20;;;;;;;14.47;43.40;102591.31;5068570;28;20028;-90
2021/11/21 10:09:12;;;;;;;9.40;1.30;;;;;;;14.46;43.42;102589.66;5058663;28;20086;-79
2021/11/21 10:12:03;;;;;;;8.25;1.77;;;;;;;14.67;43.07;102591.06;5062077;28;20032;-78
2021/11/21 10:14:32;;;;;;;9.43;2.35;;;;;;;14.90;42.61;102590.16;5063371;28;20025;-89
2021/11/21 10:16:58;;;;;;;9.73;1.55;;;;;;;15.16;42.19;102593.34;5072243;28;20028;-89
2021/11/21 10:19:23;;;;;;;6.63;1.60;;;;;;;14.67;42.99;102591.06;5071937;28;20036;-78
2021/11/21 10:21:52;;;;;;;6.03;1.63;;;;;;;14.97;42.23;102598.88;5072080;28;20093;-77
2021/11/21 10:24:29;;;;;;;5.68;1.27;;;;;;;14.90;42.60;102605.88;5073405;28;20025;-78
2021/11/21 10:27:04;;;;;;;6.35;1.70;;;;;;;14.86;42.65;102597.38;5074126;28;20032;-78
2021/11/21 10:29:37;;;;;;;9.35;1.60;;;;;;;14.59;42.95;102608.22;5072746;28;20020;-92
2021/11/21 10:32:34;;;;;;;6.50;1.73;;;;;;;14.98;42.65;102610.72;5071183;28;20033;-90
2021/11/21 10:35:07;;;;;;;7.10;1.40;;;;;;;14.88;43.04;102603.38;5071251;28;20024;-79
2021/11/21 10:37:36;;;;;;;8.32;2.30;;;;;;;15.20;41.71;102612.84;5072146;28;20036;-79
2021/11/21 10:40:14;;;;;;;4.15;1.30;;;;;;;15.38;41.48;102617.50;5071735;28;20119;-90
2021/11/21 10:42:42;;;;;;;5.13;1.10;;;;;;;15.08;41.92;102620.75;5071683;28;20481;-89
2021/11/21 10:45:10;;;;;;;7.35;1.80;;;;;;;15.55;40.58;102622.47;5071888;28;20028;-78
2021/11/21 10:47:58;;;;;;;8.02;1.55;;;;;;;15.63;40.09;102624.56;5072138;28;20107;-78
2021/11/21 10:50:38;;;;;;;4.72;1.40;;;;;;;15.27;40.57;102632.59;5073196;28;20388;-79
2021/11/21 10:53:09;;;;;;;8.57;1.50;;;;;;;15.31;40.54;102627.28;5073167;28;20433;-78
2021/11/21 10:55:35;;;;;;;5.00;1.75;;;;;;;15.18;39.92;102628.84;5072812;28;20530;-77
2021/11/21 10:58:16;;;;;;;15.27;3.53;;;;;;;15.25;39.13;102629.28;5072958;28;20048;-78
2021/11/21 11:00:43;;;;;;;6.82;1.48;;;;;;;14.75;39.19;102637.16;5071804;28;20025;-88
2021/11/21 11:03:20;;;;;;;12.38;2.80;;;;;;;15.23;38.61;102631.53;5072711;28;20459;-78
2021/11/21 11:05:46;;;;;;;8.07;1.88;;;;;;;15.77;37.65;102630.13;5072795;28;20028;-78
2021/11/21 11:08:23;;;;;;;6.72;1.20;;;;;;;15.42;37.95;102629.59;5072738;28;20028;-88
2021/11/21 11:10:49;;;;;;;8.20;1.60;;;;;;;15.39;37.43;102626.59;5072722;28;20028;-78
2021/11/21 11:13:15;;;;;;;4.50;1.30;;;;;;;15.62;37.05;102642.22;5076736;28;20029;-78
2021/11/21 11:15:43;;;;;;;12.23;1.85;;;;;;;15.20;37.09;102643.97;5078024;28;20025;-81
2021/11/21 11:18:15;;;;;;;4.50;1.45;;;;;;;15.06;37.32;102658.78;5077312;28;20021;-78